<?xml version="1.0" encoding="UTF-8" standalone="no" ?>
<gpx xmlns="http://www.topografix.com/GPX/1/1" xmlns:xsi="http://www.w3.org/2001/XMLSchema-instance" xsi:schemaLocation="http://www.topografix.com/GPX/1/1 http://www.topografix.com/GPX/1/1/gpx.xsd" version="1.1" creator="VisuGPX - https://www.visugpx.com">
  <metadata>
    <name>sigean le rieu et les sentiers de roquefort</name>
    <desc><![CDATA[il me manque la fin  car mon gps c'est arrêté............]]></desc>
  </metadata>
  <trk>
    <name><![CDATA[sigean le rieu et les sentiers de roquefort_3]]></name>
    <trkseg>
      <trkpt lat="43.03139" lon="2.9653">
        <ele>45.2</ele>
        <time>2020-06-03T10:37:44.000Z</time>
      </trkpt>
      <trkpt lat="43.03135" lon="2.96532">
        <ele>45.2</ele>
        <time>2020-06-03T10:37:45.000Z</time>
      </trkpt>
      <trkpt lat="43.03126" lon="2.96538">
        <ele>45.2</ele>
        <time>2020-06-03T10:37:47.000Z</time>
      </trkpt>
      <trkpt lat="43.03115" lon="2.96553">
        <ele>45.2</ele>
        <time>2020-06-03T10:37:50.000Z</time>
      </trkpt>
      <trkpt lat="43.03113" lon="2.96576">
        <ele>45.2</ele>
        <time>2020-06-03T10:37:53.000Z</time>
      </trkpt>
      <trkpt lat="43.03114" lon="2.96584">
        <ele>45.2</ele>
        <time>2020-06-03T10:37:54.000Z</time>
      </trkpt>
      <trkpt lat="43.03115" lon="2.96591">
        <ele>45.2</ele>
        <time>2020-06-03T10:37:55.000Z</time>
      </trkpt>
      <trkpt lat="43.03122" lon="2.96604">
        <ele>45.2</ele>
        <time>2020-06-03T10:37:57.000Z</time>
      </trkpt>
      <trkpt lat="43.03133" lon="2.9663">
        <ele>45.2</ele>
        <time>2020-06-03T10:38:01.000Z</time>
      </trkpt>
      <trkpt lat="43.03134" lon="2.96644">
        <ele>45.2</ele>
        <time>2020-06-03T10:38:03.000Z</time>
      </trkpt>
      <trkpt lat="43.03136" lon="2.96674">
        <ele>45.2</ele>
        <time>2020-06-03T10:38:07.000Z</time>
      </trkpt>
      <trkpt lat="43.03137" lon="2.96682">
        <ele>44.8</ele>
        <time>2020-06-03T10:38:08.000Z</time>
      </trkpt>
      <trkpt lat="43.03137" lon="2.9669">
        <ele>44.2</ele>
        <time>2020-06-03T10:38:09.000Z</time>
      </trkpt>
      <trkpt lat="43.03138" lon="2.96698">
        <ele>43.8</ele>
        <time>2020-06-03T10:38:10.000Z</time>
      </trkpt>
      <trkpt lat="43.03098" lon="2.97115">
        <ele>43</ele>
        <time>2020-06-03T10:39:09.000Z</time>
      </trkpt>
      <trkpt lat="43.03087" lon="2.97166">
        <ele>43</ele>
        <time>2020-06-03T10:39:17.000Z</time>
      </trkpt>
      <trkpt lat="43.03081" lon="2.97202">
        <ele>42.6</ele>
        <time>2020-06-03T10:39:22.000Z</time>
      </trkpt>
      <trkpt lat="43.03079" lon="2.97209">
        <ele>42.2</ele>
        <time>2020-06-03T10:39:23.000Z</time>
      </trkpt>
      <trkpt lat="43.03078" lon="2.97216">
        <ele>41.8</ele>
        <time>2020-06-03T10:39:24.000Z</time>
      </trkpt>
      <trkpt lat="43.03076" lon="2.97222">
        <ele>41.4</ele>
        <time>2020-06-03T10:39:25.000Z</time>
      </trkpt>
      <trkpt lat="43.03075" lon="2.97228">
        <ele>41</ele>
        <time>2020-06-03T10:39:26.000Z</time>
      </trkpt>
      <trkpt lat="43.03069" lon="2.9725">
        <ele>41</ele>
        <time>2020-06-03T10:39:30.000Z</time>
      </trkpt>
      <trkpt lat="43.0306" lon="2.97284">
        <ele>41</ele>
        <time>2020-06-03T10:39:36.000Z</time>
      </trkpt>
      <trkpt lat="43.03049" lon="2.97322">
        <ele>41</ele>
        <time>2020-06-03T10:39:42.000Z</time>
      </trkpt>
      <trkpt lat="43.03033" lon="2.97379">
        <ele>41</ele>
        <time>2020-06-03T10:39:50.000Z</time>
      </trkpt>
      <trkpt lat="43.0302" lon="2.97426">
        <ele>41</ele>
        <time>2020-06-03T10:39:57.000Z</time>
      </trkpt>
      <trkpt lat="43.03012" lon="2.97472">
        <ele>41</ele>
        <time>2020-06-03T10:40:03.000Z</time>
      </trkpt>
      <trkpt lat="43.03006" lon="2.9752">
        <ele>40.6</ele>
        <time>2020-06-03T10:40:09.000Z</time>
      </trkpt>
      <trkpt lat="43.03005" lon="2.97527">
        <ele>40</ele>
        <time>2020-06-03T10:40:10.000Z</time>
      </trkpt>
      <trkpt lat="43.03004" lon="2.97535">
        <ele>39.6</ele>
        <time>2020-06-03T10:40:11.000Z</time>
      </trkpt>
      <trkpt lat="43.03002" lon="2.97542">
        <ele>39.2</ele>
        <time>2020-06-03T10:40:12.000Z</time>
      </trkpt>
      <trkpt lat="43.03001" lon="2.97549">
        <ele>38.6</ele>
        <time>2020-06-03T10:40:13.000Z</time>
      </trkpt>
      <trkpt lat="43.02996" lon="2.9757">
        <ele>38.6</ele>
        <time>2020-06-03T10:40:16.000Z</time>
      </trkpt>
      <trkpt lat="43.02991" lon="2.97581">
        <ele>38.6</ele>
        <time>2020-06-03T10:40:18.000Z</time>
      </trkpt>
      <trkpt lat="43.02983" lon="2.97595">
        <ele>38.6</ele>
        <time>2020-06-03T10:40:21.000Z</time>
      </trkpt>
      <trkpt lat="43.02975" lon="2.97608">
        <ele>38.6</ele>
        <time>2020-06-03T10:40:24.000Z</time>
      </trkpt>
      <trkpt lat="43.0297" lon="2.97616">
        <ele>38.6</ele>
        <time>2020-06-03T10:40:26.000Z</time>
      </trkpt>
      <trkpt lat="43.02965" lon="2.97625">
        <ele>39</ele>
        <time>2020-06-03T10:40:28.000Z</time>
      </trkpt>
      <trkpt lat="43.02962" lon="2.97629">
        <ele>39.8</ele>
        <time>2020-06-03T10:40:29.000Z</time>
      </trkpt>
      <trkpt lat="43.02959" lon="2.97634">
        <ele>40.2</ele>
        <time>2020-06-03T10:40:30.000Z</time>
      </trkpt>
      <trkpt lat="43.02957" lon="2.97639">
        <ele>40.6</ele>
        <time>2020-06-03T10:40:31.000Z</time>
      </trkpt>
      <trkpt lat="43.02937" lon="2.97672">
        <ele>40.6</ele>
        <time>2020-06-03T10:40:38.000Z</time>
      </trkpt>
      <trkpt lat="43.02926" lon="2.97692">
        <ele>40.6</ele>
        <time>2020-06-03T10:40:42.000Z</time>
      </trkpt>
      <trkpt lat="43.02917" lon="2.97707">
        <ele>40.6</ele>
        <time>2020-06-03T10:40:45.000Z</time>
      </trkpt>
      <trkpt lat="43.0291" lon="2.97722">
        <ele>40.6</ele>
        <time>2020-06-03T10:40:48.000Z</time>
      </trkpt>
      <trkpt lat="43.02906" lon="2.97737">
        <ele>40.6</ele>
        <time>2020-06-03T10:40:51.000Z</time>
      </trkpt>
      <trkpt lat="43.029" lon="2.97769">
        <ele>40.6</ele>
        <time>2020-06-03T10:40:57.000Z</time>
      </trkpt>
      <trkpt lat="43.02893" lon="2.97817">
        <ele>40.6</ele>
        <time>2020-06-03T10:41:05.000Z</time>
      </trkpt>
      <trkpt lat="43.02882" lon="2.97853">
        <ele>40.6</ele>
        <time>2020-06-03T10:41:12.000Z</time>
      </trkpt>
      <trkpt lat="43.02869" lon="2.97855">
        <ele>40.6</ele>
        <time>2020-06-03T10:41:15.000Z</time>
      </trkpt>
      <trkpt lat="43.02855" lon="2.97867">
        <ele>40.6</ele>
        <time>2020-06-03T10:41:19.000Z</time>
      </trkpt>
      <trkpt lat="43.02853" lon="2.97873">
        <ele>40.6</ele>
        <time>2020-06-03T10:41:20.000Z</time>
      </trkpt>
      <trkpt lat="43.02843" lon="2.97921">
        <ele>40.6</ele>
        <time>2020-06-03T10:41:28.000Z</time>
      </trkpt>
      <trkpt lat="43.02833" lon="2.97957">
        <ele>40.6</ele>
        <time>2020-06-03T10:41:34.000Z</time>
      </trkpt>
      <trkpt lat="43.02821" lon="2.98005">
        <ele>40.6</ele>
        <time>2020-06-03T10:41:41.000Z</time>
      </trkpt>
      <trkpt lat="43.02806" lon="2.98063">
        <ele>40.6</ele>
        <time>2020-06-03T10:41:50.000Z</time>
      </trkpt>
      <trkpt lat="43.02801" lon="2.98081">
        <ele>40.2</ele>
        <time>2020-06-03T10:41:53.000Z</time>
      </trkpt>
      <trkpt lat="43.02799" lon="2.98087">
        <ele>39.8</ele>
        <time>2020-06-03T10:41:54.000Z</time>
      </trkpt>
      <trkpt lat="43.02798" lon="2.98094">
        <ele>39.4</ele>
        <time>2020-06-03T10:41:55.000Z</time>
      </trkpt>
      <trkpt lat="43.02796" lon="2.981">
        <ele>39</ele>
        <time>2020-06-03T10:41:56.000Z</time>
      </trkpt>
      <trkpt lat="43.02794" lon="2.98108">
        <ele>38.6</ele>
        <time>2020-06-03T10:41:57.000Z</time>
      </trkpt>
      <trkpt lat="43.02792" lon="2.98115">
        <ele>38.6</ele>
        <time>2020-06-03T10:41:58.000Z</time>
      </trkpt>
      <trkpt lat="43.02775" lon="2.98177">
        <ele>38.6</ele>
        <time>2020-06-03T10:42:07.000Z</time>
      </trkpt>
    </trkseg>
  </trk>
</gpx>